sensor_id;sensor_type;location;lat;lon;timestamp;P1;durP1;ratioP1;P2;durP2;ratioP2
32038;SDS011;18549;42.286;22.688;2022-11-13T00:01:39;30.83;;;19.23;;
32038;SDS011;18549;42.286;22.688;2022-11-13T00:04:06;30.57;;;19.60;;
32038;SDS011;18549;42.286;22.688;2022-11-13T00:06:35;36.47;;;24.03;;
32038;SDS011;18549;42.286;22.688;2022-11-13T00:09:01;29.83;;;22.70;;
32038;SDS011;18549;42.286;22.688;2022-11-13T00:11:30;30.83;;;20.17;;
32038;SDS011;18549;42.286;22.688;2022-11-13T00:14:01;24.37;;;17.23;;
32038;SDS011;18549;42.286;22.688;2022-11-13T00:16:28;25.70;;;17.00;;
32038;SDS011;18549;42.286;22.688;2022-11-13T00:18:55;22.67;;;15.97;;
32038;SDS011;18549;42.286;22.688;2022-11-13T00:21:22;23.07;;;16.47;;
32038;SDS011;18549;42.286;22.688;2022-11-13T00:23:54;22.20;;;15.37;;
32038;SDS011;18549;42.286;22.688;2022-11-13T00:26:22;25.60;;;18.63;;
32038;SDS011;18549;42.286;22.688;2022-11-13T00:28:55;30.17;;;17.70;;
32038;SDS011;18549;42.286;22.688;2022-11-13T00:31:23;23.90;;;16.40;;
32038;SDS011;18549;42.286;22.688;2022-11-13T00:33:51;30.30;;;17.07;;
32038;SDS011;18549;42.286;22.688;2022-11-13T00:36:22;22.30;;;15.33;;
32038;SDS011;18549;42.286;22.688;2022-11-13T00:38:54;25.20;;;15.80;;
32038;SDS011;18549;42.286;22.688;2022-11-13T00:41:21;27.87;;;17.30;;
32038;SDS011;18549;42.286;22.688;2022-11-13T00:43:49;27.93;;;18.57;;
32038;SDS011;18549;42.286;22.688;2022-11-13T00:46:18;25.70;;;15.53;;
32038;SDS011;18549;42.286;22.688;2022-11-13T00:48:48;30.77;;;18.37;;
32038;SDS011;18549;42.286;22.688;2022-11-13T00:51:17;30.10;;;21.10;;
32038;SDS011;18549;42.286;22.688;2022-11-13T00:53:46;21.93;;;16.57;;
32038;SDS011;18549;42.286;22.688;2022-11-13T00:56:13;22.50;;;15.43;;
32038;SDS011;18549;42.286;22.688;2022-11-13T00:58:40;17.23;;;12.77;;
32038;SDS011;18549;42.286;22.688;2022-11-13T01:01:08;18.50;;;12.07;;
32038;SDS011;18549;42.286;22.688;2022-11-13T01:03:38;15.33;;;10.50;;
32038;SDS011;18549;42.286;22.688;2022-11-13T01:06:08;25.57;;;17.00;;
32038;SDS011;18549;42.286;22.688;2022-11-13T01:08:36;19.00;;;14.37;;
32038;SDS011;18549;42.286;22.688;2022-11-13T01:11:06;38.67;;;21.00;;
32038;SDS011;18549;42.286;22.688;2022-11-13T01:13:37;31.47;;;20.37;;
32038;SDS011;18549;42.286;22.688;2022-11-13T01:16:06;27.50;;;18.67;;
32038;SDS011;18549;42.286;22.688;2022-11-13T01:18:35;32.27;;;20.77;;
32038;SDS011;18549;42.286;22.688;2022-11-13T01:21:04;30.10;;;19.47;;
32038;SDS011;18549;42.286;22.688;2022-11-13T01:23:32;43.07;;;25.83;;
32038;SDS011;18549;42.286;22.688;2022-11-13T01:26:03;39.67;;;22.30;;
32038;SDS011;18549;42.286;22.688;2022-11-13T01:28:35;42.93;;;24.37;;
32038;SDS011;18549;42.286;22.688;2022-11-13T01:31:03;42.37;;;25.23;;
32038;SDS011;18549;42.286;22.688;2022-11-13T01:33:30;45.17;;;24.87;;
32038;SDS011;18549;42.286;22.688;2022-11-13T01:36:00;46.20;;;23.30;;
32038;SDS011;18549;42.286;22.688;2022-11-13T01:38:30;47.10;;;27.43;;
32038;SDS011;18549;42.286;22.688;2022-11-13T01:40:57;58.03;;;30.20;;
32038;SDS011;18549;42.286;22.688;2022-11-13T01:43:25;53.97;;;28.13;;
32038;SDS011;18549;42.286;22.688;2022-11-13T01:46:06;50.80;;;24.83;;
32038;SDS011;18549;42.286;22.688;2022-11-13T01:48:49;44.77;;;24.70;;
32038;SDS011;18549;42.286;22.688;2022-11-13T01:51:21;27.00;;;16.97;;
32038;SDS011;18549;42.286;22.688;2022-11-13T01:53:53;30.17;;;18.70;;
32038;SDS011;18549;42.286;22.688;2022-11-13T01:56:21;33.17;;;18.43;;
32038;SDS011;18549;42.286;22.688;2022-11-13T01:58:50;42.83;;;22.33;;
32038;SDS011;18549;42.286;22.688;2022-11-13T02:01:27;45.90;;;24.67;;
32038;SDS011;18549;42.286;22.688;2022-11-13T02:03:55;46.23;;;25.90;;
32038;SDS011;18549;42.286;22.688;2022-11-13T02:06:22;58.97;;;27.37;;
32038;SDS011;18549;42.286;22.688;2022-11-13T02:08:54;61.73;;;31.80;;
32038;SDS011;18549;42.286;22.688;2022-11-13T02:11:21;73.23;;;31.30;;
32038;SDS011;18549;42.286;22.688;2022-11-13T02:13:48;53.77;;;30.00;;
32038;SDS011;18549;42.286;22.688;2022-11-13T02:16:15;71.47;;;35.63;;
32038;SDS011;18549;42.286;22.688;2022-11-13T02:18:44;50.53;;;32.07;;
32038;SDS011;18549;42.286;22.688;2022-11-13T02:21:14;55.43;;;28.37;;
32038;SDS011;18549;42.286;22.688;2022-11-13T02:23:49;44.50;;;29.47;;
32038;SDS011;18549;42.286;22.688;2022-11-13T02:26:26;44.17;;;27.07;;
32038;SDS011;18549;42.286;22.688;2022-11-13T02:28:56;40.43;;;25.40;;
32038;SDS011;18549;42.286;22.688;2022-11-13T02:31:23;39.37;;;24.23;;
32038;SDS011;18549;42.286;22.688;2022-11-13T02:33:51;44.77;;;25.23;;
32038;SDS011;18549;42.286;22.688;2022-11-13T02:36:19;39.67;;;23.40;;
32038;SDS011;18549;42.286;22.688;2022-11-13T02:38:52;46.17;;;24.60;;
32038;SDS011;18549;42.286;22.688;2022-11-13T02:41:20;41.87;;;23.57;;
32038;SDS011;18549;42.286;22.688;2022-11-13T02:43:49;53.90;;;27.77;;
32038;SDS011;18549;42.286;22.688;2022-11-13T02:46:16;45.10;;;24.47;;
32038;SDS011;18549;42.286;22.688;2022-11-13T02:48:44;47.03;;;26.77;;
32038;SDS011;18549;42.286;22.688;2022-11-13T02:51:11;50.70;;;26.73;;
32038;SDS011;18549;42.286;22.688;2022-11-13T02:53:38;41.13;;;22.50;;
32038;SDS011;18549;42.286;22.688;2022-11-13T02:56:06;37.63;;;22.60;;
32038;SDS011;18549;42.286;22.688;2022-11-13T02:58:33;29.07;;;20.40;;
32038;SDS011;18549;42.286;22.688;2022-11-13T03:01:03;31.70;;;19.90;;
32038;SDS011;18549;42.286;22.688;2022-11-13T03:03:29;37.63;;;19.80;;
32038;SDS011;18549;42.286;22.688;2022-11-13T03:05:57;34.07;;;19.73;;
32038;SDS011;18549;42.286;22.688;2022-11-13T03:08:23;44.53;;;25.10;;
32038;SDS011;18549;42.286;22.688;2022-11-13T03:10:51;51.33;;;27.90;;
32038;SDS011;18549;42.286;22.688;2022-11-13T03:13:19;58.40;;;27.00;;
32038;SDS011;18549;42.286;22.688;2022-11-13T03:15:46;55.57;;;27.90;;
32038;SDS011;18549;42.286;22.688;2022-11-13T03:18:17;51.33;;;28.30;;
32038;SDS011;18549;42.286;22.688;2022-11-13T03:20:44;56.03;;;28.40;;
32038;SDS011;18549;42.286;22.688;2022-11-13T03:23:17;54.27;;;27.50;;
32038;SDS011;18549;42.286;22.688;2022-11-13T03:25:44;45.97;;;26.83;;
32038;SDS011;18549;42.286;22.688;2022-11-13T03:28:11;44.87;;;27.43;;
32038;SDS011;18549;42.286;22.688;2022-11-13T03:30:38;61.43;;;32.63;;
32038;SDS011;18549;42.286;22.688;2022-11-13T03:33:05;49.40;;;27.10;;
32038;SDS011;18549;42.286;22.688;2022-11-13T03:35:34;53.77;;;28.60;;
32038;SDS011;18549;42.286;22.688;2022-11-13T03:38:00;49.23;;;29.13;;
32038;SDS011;18549;42.286;22.688;2022-11-13T03:40:30;45.47;;;28.47;;
32038;SDS011;18549;42.286;22.688;2022-11-13T03:42:58;44.20;;;26.40;;
32038;SDS011;18549;42.286;22.688;2022-11-13T03:45:25;45.47;;;27.17;;
32038;SDS011;18549;42.286;22.688;2022-11-13T03:47:51;52.70;;;29.27;;
32038;SDS011;18549;42.286;22.688;2022-11-13T03:50:18;66.40;;;33.00;;
32038;SDS011;18549;42.286;22.688;2022-11-13T03:52:50;60.80;;;34.83;;
32038;SDS011;18549;42.286;22.688;2022-11-13T03:55:18;61.47;;;32.67;;
32038;SDS011;18549;42.286;22.688;2022-11-13T03:57:45;63.83;;;35.10;;
32038;SDS011;18549;42.286;22.688;2022-11-13T04:00:12;64.00;;;32.87;;
32038;SDS011;18549;42.286;22.688;2022-11-13T04:02:40;71.63;;;36.33;;
32038;SDS011;18549;42.286;22.688;2022-11-13T04:05:07;64.20;;;37.17;;
32038;SDS011;18549;42.286;22.688;2022-11-13T04:07:36;63.70;;;33.77;;
32038;SDS011;18549;42.286;22.688;2022-11-13T04:10:05;71.13;;;34.13;;
32038;SDS011;18549;42.286;22.688;2022-11-13T04:12:32;66.80;;;37.50;;
32038;SDS011;18549;42.286;22.688;2022-11-13T04:14:59;73.37;;;37.03;;
32038;SDS011;18549;42.286;22.688;2022-11-13T04:17:26;65.53;;;35.43;;
32038;SDS011;18549;42.286;22.688;2022-11-13T04:19:53;75.53;;;38.07;;
32038;SDS011;18549;42.286;22.688;2022-11-13T04:22:20;70.73;;;36.77;;
32038;SDS011;18549;42.286;22.688;2022-11-13T04:24:47;63.70;;;34.77;;
32038;SDS011;18549;42.286;22.688;2022-11-13T04:27:16;71.43;;;36.90;;
32038;SDS011;18549;42.286;22.688;2022-11-13T04:29:42;68.80;;;38.63;;
32038;SDS011;18549;42.286;22.688;2022-11-13T04:32:10;79.40;;;39.90;;
32038;SDS011;18549;42.286;22.688;2022-11-13T04:34:37;80.43;;;40.70;;
32038;SDS011;18549;42.286;22.688;2022-11-13T04:37:04;78.03;;;39.87;;
32038;SDS011;18549;42.286;22.688;2022-11-13T04:39:31;77.00;;;38.57;;
32038;SDS011;18549;42.286;22.688;2022-11-13T04:41:58;72.03;;;38.17;;
32038;SDS011;18549;42.286;22.688;2022-11-13T04:44:44;70.53;;;37.97;;
32038;SDS011;18549;42.286;22.688;2022-11-13T04:47:12;77.80;;;40.13;;
32038;SDS011;18549;42.286;22.688;2022-11-13T04:49:41;68.67;;;41.17;;
32038;SDS011;18549;42.286;22.688;2022-11-13T04:52:11;70.77;;;39.90;;
32038;SDS011;18549;42.286;22.688;2022-11-13T04:54:39;71.23;;;37.67;;
32038;SDS011;18549;42.286;22.688;2022-11-13T04:57:10;59.87;;;38.23;;
32038;SDS011;18549;42.286;22.688;2022-11-13T04:59:36;67.73;;;38.23;;
32038;SDS011;18549;42.286;22.688;2022-11-13T05:02:05;61.87;;;37.13;;
32038;SDS011;18549;42.286;22.688;2022-11-13T05:04:32;62.20;;;38.90;;
32038;SDS011;18549;42.286;22.688;2022-11-13T05:06:59;69.63;;;38.77;;
32038;SDS011;18549;42.286;22.688;2022-11-13T05:09:25;64.27;;;38.80;;
32038;SDS011;18549;42.286;22.688;2022-11-13T05:11:52;73.10;;;43.57;;
32038;SDS011;18549;42.286;22.688;2022-11-13T05:14:19;83.17;;;46.10;;
32038;SDS011;18549;42.286;22.688;2022-11-13T05:16:46;100.50;;;52.60;;
32038;SDS011;18549;42.286;22.688;2022-11-13T05:19:15;91.80;;;54.17;;
32038;SDS011;18549;42.286;22.688;2022-11-13T05:21:42;93.20;;;51.90;;
32038;SDS011;18549;42.286;22.688;2022-11-13T05:24:10;102.80;;;53.57;;
32038;SDS011;18549;42.286;22.688;2022-11-13T05:26:37;117.73;;;65.37;;
32038;SDS011;18549;42.286;22.688;2022-11-13T05:29:04;118.20;;;62.50;;
32038;SDS011;18549;42.286;22.688;2022-11-13T05:31:34;97.37;;;52.53;;
32038;SDS011;18549;42.286;22.688;2022-11-13T05:34:02;94.53;;;46.67;;
32038;SDS011;18549;42.286;22.688;2022-11-13T05:36:31;87.83;;;46.40;;
32038;SDS011;18549;42.286;22.688;2022-11-13T05:39:01;75.67;;;41.40;;
32038;SDS011;18549;42.286;22.688;2022-11-13T05:41:29;81.97;;;45.27;;
32038;SDS011;18549;42.286;22.688;2022-11-13T05:43:58;72.20;;;41.47;;
32038;SDS011;18549;42.286;22.688;2022-11-13T05:46:26;79.30;;;42.47;;
32038;SDS011;18549;42.286;22.688;2022-11-13T05:48:55;78.10;;;42.07;;
32038;SDS011;18549;42.286;22.688;2022-11-13T05:51:24;82.43;;;41.27;;
32038;SDS011;18549;42.286;22.688;2022-11-13T05:53:55;85.53;;;42.80;;
32038;SDS011;18549;42.286;22.688;2022-11-13T05:56:25;80.60;;;44.77;;
32038;SDS011;18549;42.286;22.688;2022-11-13T05:58:54;79.87;;;46.40;;
32038;SDS011;18549;42.286;22.688;2022-11-13T06:01:23;90.20;;;51.47;;
32038;SDS011;18549;42.286;22.688;2022-11-13T06:03:53;105.63;;;59.83;;
32038;SDS011;18549;42.286;22.688;2022-11-13T06:06:21;119.57;;;69.93;;
32038;SDS011;18549;42.286;22.688;2022-11-13T06:08:49;141.07;;;85.20;;
32038;SDS011;18549;42.286;22.688;2022-11-13T06:11:19;88.03;;;53.50;;
32038;SDS011;18549;42.286;22.688;2022-11-13T06:13:47;101.67;;;57.93;;
32038;SDS011;18549;42.286;22.688;2022-11-13T06:16:18;76.07;;;45.63;;
32038;SDS011;18549;42.286;22.688;2022-11-13T06:18:47;106.40;;;53.50;;
32038;SDS011;18549;42.286;22.688;2022-11-13T06:21:15;90.90;;;49.63;;
32038;SDS011;18549;42.286;22.688;2022-11-13T06:23:43;75.87;;;43.80;;
32038;SDS011;18549;42.286;22.688;2022-11-13T06:26:12;109.73;;;57.30;;
32038;SDS011;18549;42.286;22.688;2022-11-13T06:28:41;101.53;;;60.83;;
32038;SDS011;18549;42.286;22.688;2022-11-13T06:31:12;118.73;;;64.43;;
32038;SDS011;18549;42.286;22.688;2022-11-13T06:33:40;118.03;;;65.73;;
32038;SDS011;18549;42.286;22.688;2022-11-13T06:36:10;101.83;;;61.17;;
32038;SDS011;18549;42.286;22.688;2022-11-13T06:38:39;100.90;;;61.10;;
32038;SDS011;18549;42.286;22.688;2022-11-13T06:41:07;86.77;;;54.17;;
32038;SDS011;18549;42.286;22.688;2022-11-13T06:43:36;78.33;;;44.73;;
32038;SDS011;18549;42.286;22.688;2022-11-13T06:46:09;66.27;;;38.87;;
32038;SDS011;18549;42.286;22.688;2022-11-13T06:48:38;61.23;;;33.53;;
32038;SDS011;18549;42.286;22.688;2022-11-13T06:51:06;37.03;;;24.73;;
32038;SDS011;18549;42.286;22.688;2022-11-13T06:53:35;37.03;;;23.23;;
32038;SDS011;18549;42.286;22.688;2022-11-13T06:56:03;29.87;;;19.27;;
32038;SDS011;18549;42.286;22.688;2022-11-13T06:58:31;34.40;;;20.83;;
32038;SDS011;18549;42.286;22.688;2022-11-13T07:01:05;27.80;;;18.53;;
32038;SDS011;18549;42.286;22.688;2022-11-13T07:03:33;37.87;;;25.27;;
32038;SDS011;18549;42.286;22.688;2022-11-13T07:06:01;32.20;;;20.37;;
32038;SDS011;18549;42.286;22.688;2022-11-13T07:08:28;31.07;;;20.00;;
32038;SDS011;18549;42.286;22.688;2022-11-13T07:10:56;26.87;;;18.03;;
32038;SDS011;18549;42.286;22.688;2022-11-13T07:13:24;28.43;;;18.70;;
32038;SDS011;18549;42.286;22.688;2022-11-13T07:15:52;27.80;;;17.83;;
32038;SDS011;18549;42.286;22.688;2022-11-13T07:18:22;27.10;;;16.67;;
32038;SDS011;18549;42.286;22.688;2022-11-13T07:20:52;30.17;;;18.17;;
32038;SDS011;18549;42.286;22.688;2022-11-13T07:23:19;26.70;;;17.80;;
32038;SDS011;18549;42.286;22.688;2022-11-13T07:25:51;38.93;;;20.73;;
32038;SDS011;18549;42.286;22.688;2022-11-13T07:28:18;30.33;;;19.70;;
32038;SDS011;18549;42.286;22.688;2022-11-13T07:30:45;30.70;;;20.37;;
32038;SDS011;18549;42.286;22.688;2022-11-13T07:33:12;31.70;;;22.70;;
32038;SDS011;18549;42.286;22.688;2022-11-13T07:35:40;27.10;;;20.13;;
32038;SDS011;18549;42.286;22.688;2022-11-13T07:38:07;32.67;;;20.40;;
32038;SDS011;18549;42.286;22.688;2022-11-13T07:40:34;28.33;;;19.37;;
32038;SDS011;18549;42.286;22.688;2022-11-13T07:43:02;27.67;;;20.60;;
32038;SDS011;18549;42.286;22.688;2022-11-13T07:45:29;30.30;;;22.40;;
32038;SDS011;18549;42.286;22.688;2022-11-13T07:47:56;32.27;;;20.20;;
32038;SDS011;18549;42.286;22.688;2022-11-13T07:50:25;37.00;;;22.73;;
32038;SDS011;18549;42.286;22.688;2022-11-13T07:52:55;38.07;;;23.27;;
32038;SDS011;18549;42.286;22.688;2022-11-13T07:55:23;29.57;;;21.57;;
32038;SDS011;18549;42.286;22.688;2022-11-13T07:57:53;35.50;;;22.37;;
32038;SDS011;18549;42.286;22.688;2022-11-13T08:00:21;34.97;;;21.90;;
32038;SDS011;18549;42.286;22.688;2022-11-13T08:02:50;32.47;;;22.27;;
32038;SDS011;18549;42.286;22.688;2022-11-13T08:05:18;34.77;;;22.00;;
32038;SDS011;18549;42.286;22.688;2022-11-13T08:07:45;37.10;;;23.33;;
32038;SDS011;18549;42.286;22.688;2022-11-13T08:10:15;36.10;;;23.27;;
32038;SDS011;18549;42.286;22.688;2022-11-13T08:12:45;33.63;;;24.80;;
32038;SDS011;18549;42.286;22.688;2022-11-13T08:15:12;42.43;;;25.17;;
32038;SDS011;18549;42.286;22.688;2022-11-13T08:17:39;34.10;;;24.43;;
32038;SDS011;18549;42.286;22.688;2022-11-13T08:20:06;35.97;;;24.20;;
32038;SDS011;18549;42.286;22.688;2022-11-13T08:22:33;39.33;;;24.43;;
32038;SDS011;18549;42.286;22.688;2022-11-13T08:25:00;33.43;;;23.97;;
32038;SDS011;18549;42.286;22.688;2022-11-13T08:27:29;38.30;;;26.37;;
32038;SDS011;18549;42.286;22.688;2022-11-13T08:29:56;35.07;;;26.23;;
32038;SDS011;18549;42.286;22.688;2022-11-13T08:32:26;40.07;;;26.60;;
32038;SDS011;18549;42.286;22.688;2022-11-13T08:34:53;34.20;;;24.40;;
32038;SDS011;18549;42.286;22.688;2022-11-13T08:37:20;31.07;;;23.87;;
32038;SDS011;18549;42.286;22.688;2022-11-13T08:39:47;30.83;;;23.27;;
32038;SDS011;18549;42.286;22.688;2022-11-13T08:42:14;35.67;;;25.40;;
32038;SDS011;18549;42.286;22.688;2022-11-13T08:44:45;36.67;;;24.67;;
32038;SDS011;18549;42.286;22.688;2022-11-13T08:47:11;35.43;;;24.87;;
32038;SDS011;18549;42.286;22.688;2022-11-13T08:49:38;37.40;;;25.27;;
32038;SDS011;18549;42.286;22.688;2022-11-13T08:52:06;38.90;;;24.07;;
32038;SDS011;18549;42.286;22.688;2022-11-13T08:54:33;33.30;;;24.43;;
32038;SDS011;18549;42.286;22.688;2022-11-13T08:57:00;29.17;;;22.30;;
32038;SDS011;18549;42.286;22.688;2022-11-13T08:59:28;31.07;;;24.23;;
32038;SDS011;18549;42.286;22.688;2022-11-13T09:01:57;28.37;;;21.20;;
32038;SDS011;18549;42.286;22.688;2022-11-13T09:04:26;25.40;;;19.40;;
32038;SDS011;18549;42.286;22.688;2022-11-13T09:06:54;25.73;;;19.20;;
32038;SDS011;18549;42.286;22.688;2022-11-13T09:09:21;25.53;;;20.20;;
32038;SDS011;18549;42.286;22.688;2022-11-13T09:11:48;27.33;;;20.10;;
32038;SDS011;18549;42.286;22.688;2022-11-13T09:14:16;25.27;;;19.27;;
32038;SDS011;18549;42.286;22.688;2022-11-13T09:16:43;24.93;;;18.57;;
32038;SDS011;18549;42.286;22.688;2022-11-13T09:19:11;25.60;;;20.23;;
32038;SDS011;18549;42.286;22.688;2022-11-13T09:21:38;21.67;;;16.83;;
32038;SDS011;18549;42.286;22.688;2022-11-13T09:24:05;33.07;;;18.47;;
32038;SDS011;18549;42.286;22.688;2022-11-13T09:26:33;28.70;;;20.10;;
32038;SDS011;18549;42.286;22.688;2022-11-13T09:29:01;30.23;;;17.60;;
32038;SDS011;18549;42.286;22.688;2022-11-13T09:31:28;28.57;;;17.33;;
32038;SDS011;18549;42.286;22.688;2022-11-13T09:33:58;23.73;;;16.83;;
32038;SDS011;18549;42.286;22.688;2022-11-13T09:36:27;21.97;;;16.97;;
32038;SDS011;18549;42.286;22.688;2022-11-13T09:38:54;21.23;;;17.30;;
32038;SDS011;18549;42.286;22.688;2022-11-13T09:41:22;24.50;;;17.23;;
32038;SDS011;18549;42.286;22.688;2022-11-13T09:43:51;26.20;;;21.10;;
32038;SDS011;18549;42.286;22.688;2022-11-13T09:46:19;23.43;;;18.03;;
32038;SDS011;18549;42.286;22.688;2022-11-13T09:48:54;22.53;;;16.70;;
32038;SDS011;18549;42.286;22.688;2022-11-13T09:51:24;19.87;;;16.63;;
32038;SDS011;18549;42.286;22.688;2022-11-13T09:53:56;21.63;;;15.73;;
32038;SDS011;18549;42.286;22.688;2022-11-13T09:56:24;22.63;;;16.83;;
32038;SDS011;18549;42.286;22.688;2022-11-13T09:58:58;24.50;;;16.80;;
32038;SDS011;18549;42.286;22.688;2022-11-13T10:01:30;24.87;;;15.57;;
32038;SDS011;18549;42.286;22.688;2022-11-13T10:04:05;21.17;;;16.53;;
32038;SDS011;18549;42.286;22.688;2022-11-13T10:06:41;24.00;;;17.33;;
32038;SDS011;18549;42.286;22.688;2022-11-13T10:09:31;23.23;;;17.93;;
32038;SDS011;18549;42.286;22.688;2022-11-13T10:12:07;26.07;;;18.30;;
32038;SDS011;18549;42.286;22.688;2022-11-13T10:14:35;26.07;;;18.57;;
32038;SDS011;18549;42.286;22.688;2022-11-13T10:17:11;26.63;;;20.37;;
32038;SDS011;18549;42.286;22.688;2022-11-13T10:19:44;25.03;;;18.97;;
32038;SDS011;18549;42.286;22.688;2022-11-13T10:22:20;27.73;;;20.67;;
32038;SDS011;18549;42.286;22.688;2022-11-13T10:24:56;23.87;;;18.33;;
32038;SDS011;18549;42.286;22.688;2022-11-13T10:27:27;27.10;;;19.00;;
32038;SDS011;18549;42.286;22.688;2022-11-13T10:29:54;37.80;;;20.33;;
32038;SDS011;18549;42.286;22.688;2022-11-13T10:32:22;28.73;;;20.90;;
32038;SDS011;18549;42.286;22.688;2022-11-13T10:34:53;30.70;;;21.33;;
32038;SDS011;18549;42.286;22.688;2022-11-13T10:40:24;23.43;;;17.93;;
32038;SDS011;18549;42.286;22.688;2022-11-13T10:43:03;26.17;;;14.90;;
32038;SDS011;18549;42.286;22.688;2022-11-13T10:45:31;17.67;;;14.27;;
32038;SDS011;18549;42.286;22.688;2022-11-13T10:47:59;26.00;;;14.47;;
32038;SDS011;18549;42.286;22.688;2022-11-13T10:50:27;31.67;;;16.10;;
32038;SDS011;18549;42.286;22.688;2022-11-13T10:52:59;19.37;;;15.27;;
32038;SDS011;18549;42.286;22.688;2022-11-13T10:55:26;18.00;;;15.20;;
32038;SDS011;18549;42.286;22.688;2022-11-13T10:58:03;20.00;;;16.53;;
32038;SDS011;18549;42.286;22.688;2022-11-13T11:00:43;18.60;;;13.60;;
32038;SDS011;18549;42.286;22.688;2022-11-13T11:03:17;21.95;;;13.77;;
32038;SDS011;18549;42.286;22.688;2022-11-13T11:05:55;19.07;;;15.50;;
32038;SDS011;18549;42.286;22.688;2022-11-13T11:08:27;18.53;;;15.53;;
32038;SDS011;18549;42.286;22.688;2022-11-13T11:10:59;22.87;;;16.57;;
32038;SDS011;18549;42.286;22.688;2022-11-13T11:13:44;19.13;;;15.33;;
32038;SDS011;18549;42.286;22.688;2022-11-13T11:16:13;20.62;;;15.38;;
32038;SDS011;18549;42.286;22.688;2022-11-13T11:18:46;20.10;;;14.63;;
32038;SDS011;18549;42.286;22.688;2022-11-13T11:21:18;29.37;;;16.92;;
32038;SDS011;18549;42.286;22.688;2022-11-13T11:23:54;20.57;;;14.70;;
32038;SDS011;18549;42.286;22.688;2022-11-13T11:26:27;14.45;;;12.27;;
32038;SDS011;18549;42.286;22.688;2022-11-13T11:29:01;18.43;;;12.83;;
32038;SDS011;18549;42.286;22.688;2022-11-13T11:31:39;15.73;;;12.82;;
32038;SDS011;18549;42.286;22.688;2022-11-13T11:34:13;19.90;;;14.48;;
32038;SDS011;18549;42.286;22.688;2022-11-13T11:36:45;17.57;;;15.20;;
32038;SDS011;18549;42.286;22.688;2022-11-13T11:39:29;22.83;;;15.07;;
32038;SDS011;18549;42.286;22.688;2022-11-13T11:42:04;24.00;;;16.10;;
32038;SDS011;18549;42.286;22.688;2022-11-13T11:44:48;21.53;;;16.07;;
32038;SDS011;18549;42.286;22.688;2022-11-13T11:47:26;19.67;;;15.90;;
32038;SDS011;18549;42.286;22.688;2022-11-13T11:50:06;24.57;;;14.60;;
32038;SDS011;18549;42.286;22.688;2022-11-13T11:52:49;20.23;;;16.20;;
32038;SDS011;18549;42.286;22.688;2022-11-13T11:55:42;24.53;;;14.87;;
32038;SDS011;18549;42.286;22.688;2022-11-13T11:58:25;21.23;;;16.03;;
32038;SDS011;18549;42.286;22.688;2022-11-13T12:01:06;17.83;;;14.43;;
32038;SDS011;18549;42.286;22.688;2022-11-13T12:03:48;22.53;;;16.23;;
32038;SDS011;18549;42.286;22.688;2022-11-13T12:06:27;20.93;;;15.97;;
32038;SDS011;18549;42.286;22.688;2022-11-13T12:09:08;21.73;;;15.70;;
32038;SDS011;18549;42.286;22.688;2022-11-13T12:11:45;21.73;;;15.23;;
32038;SDS011;18549;42.286;22.688;2022-11-13T12:14:20;18.77;;;13.77;;
32038;SDS011;18549;42.286;22.688;2022-11-13T12:17:00;18.27;;;15.07;;
32038;SDS011;18549;42.286;22.688;2022-11-13T12:19:38;17.27;;;14.90;;
32038;SDS011;18549;42.286;22.688;2022-11-13T12:22:21;21.53;;;15.13;;
32038;SDS011;18549;42.286;22.688;2022-11-13T12:24:59;19.53;;;15.93;;
32038;SDS011;18549;42.286;22.688;2022-11-13T12:27:42;23.23;;;15.30;;
32038;SDS011;18549;42.286;22.688;2022-11-13T12:30:36;22.40;;;17.13;;
32038;SDS011;18549;42.286;22.688;2022-11-13T12:33:16;22.10;;;15.00;;
32038;SDS011;18549;42.286;22.688;2022-11-13T12:35:55;28.77;;;16.87;;
32038;SDS011;18549;42.286;22.688;2022-11-13T12:38:26;21.57;;;15.47;;
32038;SDS011;18549;42.286;22.688;2022-11-13T12:41:06;21.63;;;16.93;;
32038;SDS011;18549;42.286;22.688;2022-11-13T12:46:35;23.97;;;16.10;;
32038;SDS011;18549;42.286;22.688;2022-11-13T12:49:13;20.43;;;15.03;;
32038;SDS011;18549;42.286;22.688;2022-11-13T12:51:54;19.70;;;16.33;;
32038;SDS011;18549;42.286;22.688;2022-11-13T12:54:26;27.53;;;17.67;;
32038;SDS011;18549;42.286;22.688;2022-11-13T12:59:51;20.33;;;15.93;;
32038;SDS011;18549;42.286;22.688;2022-11-13T13:02:29;26.13;;;16.00;;
32038;SDS011;18549;42.286;22.688;2022-11-13T13:05:08;22.37;;;16.90;;
32038;SDS011;18549;42.286;22.688;2022-11-13T13:07:51;24.67;;;15.90;;
32038;SDS011;18549;42.286;22.688;2022-11-13T13:10:47;20.63;;;15.83;;
32038;SDS011;18549;42.286;22.688;2022-11-13T13:13:24;21.23;;;15.03;;
32038;SDS011;18549;42.286;22.688;2022-11-13T13:16:06;20.07;;;16.60;;
32038;SDS011;18549;42.286;22.688;2022-11-13T13:18:34;21.80;;;15.57;;
32038;SDS011;18549;42.286;22.688;2022-11-13T13:21:05;29.03;;;19.53;;
32038;SDS011;18549;42.286;22.688;2022-11-13T13:23:35;31.67;;;20.47;;
32038;SDS011;18549;42.286;22.688;2022-11-13T13:26:12;24.50;;;18.57;;
32038;SDS011;18549;42.286;22.688;2022-11-13T13:28:42;23.87;;;17.40;;
32038;SDS011;18549;42.286;22.688;2022-11-13T13:31:19;34.57;;;18.60;;
32038;SDS011;18549;42.286;22.688;2022-11-13T13:33:55;20.33;;;16.07;;
32038;SDS011;18549;42.286;22.688;2022-11-13T13:36:34;22.30;;;17.07;;
32038;SDS011;18549;42.286;22.688;2022-11-13T13:39:18;23.73;;;16.50;;
32038;SDS011;18549;42.286;22.688;2022-11-13T13:41:58;29.13;;;18.60;;
32038;SDS011;18549;42.286;22.688;2022-11-13T13:44:50;24.53;;;17.90;;
32038;SDS011;18549;42.286;22.688;2022-11-13T13:47:32;25.47;;;17.87;;
32038;SDS011;18549;42.286;22.688;2022-11-13T13:50:03;34.27;;;17.73;;
32038;SDS011;18549;42.286;22.688;2022-11-13T13:52:32;19.43;;;16.70;;
32038;SDS011;18549;42.286;22.688;2022-11-13T13:55:03;24.23;;;17.50;;
32038;SDS011;18549;42.286;22.688;2022-11-13T13:57:32;21.83;;;17.70;;
32038;SDS011;18549;42.286;22.688;2022-11-13T13:59:59;23.33;;;17.57;;
32038;SDS011;18549;42.286;22.688;2022-11-13T14:02:32;29.00;;;19.33;;
32038;SDS011;18549;42.286;22.688;2022-11-13T14:05:15;32.97;;;19.70;;
32038;SDS011;18549;42.286;22.688;2022-11-13T14:07:52;32.80;;;19.97;;
32038;SDS011;18549;42.286;22.688;2022-11-13T14:10:20;30.63;;;21.97;;
32038;SDS011;18549;42.286;22.688;2022-11-13T14:12:50;25.47;;;19.83;;
32038;SDS011;18549;42.286;22.688;2022-11-13T14:15:22;25.90;;;20.13;;
32038;SDS011;18549;42.286;22.688;2022-11-13T14:18:02;33.90;;;21.63;;
32038;SDS011;18549;42.286;22.688;2022-11-13T14:20:33;34.97;;;21.50;;
32038;SDS011;18549;42.286;22.688;2022-11-13T14:23:07;30.97;;;22.63;;
32038;SDS011;18549;42.286;22.688;2022-11-13T14:25:36;46.30;;;24.17;;
32038;SDS011;18549;42.286;22.688;2022-11-13T14:28:10;43.27;;;28.87;;
32038;SDS011;18549;42.286;22.688;2022-11-13T14:30:42;49.23;;;31.87;;
32038;SDS011;18549;42.286;22.688;2022-11-13T14:33:14;40.87;;;28.93;;
32038;SDS011;18549;42.286;22.688;2022-11-13T14:35:49;42.90;;;29.57;;
32038;SDS011;18549;42.286;22.688;2022-11-13T14:38:18;42.63;;;31.73;;